Delaplaine, Arkansas
Current Conditions -  °F | °C
As of 4:55 PM on Monday 24 Nov 2014 (Local Time) from K4M9 Reporting Station
Clear Clear  
Wind Chill: 45°   Ceiling: Unl
Heat Index: 48°   Visibility: 10mi
Dew Point: 32°   Wind: 8mph
Humidity: 54%   Direction: 260°W
Pressure: 29.91"   Gusts: NA
Location:  36.23°N, 90.73°W
Report Text: K4M9 242255Z AUTO 26007KT 10SM CLR 09/00 A2991 RMK AO2
Loading
Personal Weather Stations






























Interactive Weather Map New forecast layout! Learn more

10-Day Weather Forecast

Advertisements
Track Severe Weather on mobile